AirNav   Air Wisconsin Up To $57,000 Bonus
 
 1375 users online  

IL75 John H Stroger Hospital of Cook County Heliport
Chicago, Illinois, USA

GOING TO CHICAGO?


FAA INFORMATION EFFECTIVE 05 DECEMBER 2019

Location

FAA Identifier: IL75
Lat/Long: 41-52-29.1170N 087-40-24.1930W
41-52.485283N 087-40.403217W
41.8747547,-87.6733869
(estimated)
Elevation: 593 ft. / 181 m (estimated)
Variation: 01W (1985)
Time zone: UTC -6 (UTC -5 during Daylight Saving Time)
Zip code: 60612

Heliport Operations

Heliport use: Private use, MEDICAL USE.
Activation date: 02/1973
Control tower: no
ARTCC: CHICAGO CENTER
FSS: KANKAKEE FLIGHT SERVICE STATION
Attendance: CONTINUOUS
Wind indicator: lighted
Segmented circle: no
Lights: SS-SR

Heliport Communications

WX ASOS at MDW (6 nm SW): PHONE 773-884-4424
WX ASOS at ORD (12 nm NW): PHONE 773-462-0118
WX ASOS at PWK (18 nm NW): PHONE 847-465-0291
WX AWOS-3PT at GYY (19 nm SE): 134.575 (219-944-0010)

Nearby radio navigation aids

VOR radial/distance  VOR name  Freq  Var
CGTr346/22.4CHICAGO HEIGHTS VORTAC114.2002E
OBKr151/24.2NORTHBROOK VOR/DME113.0002W
DPAr090/30.2DUPAGE VOR/DME108.4002E
JOTr054/35.0JOLIET VOR/DME112.3002E
EONr006/36.7PEOTONE VORTAC113.2002E

Heliport Services

Airframe service: NONE
Powerplant service: NONE

Runway Information

Helipad H1

Dimensions: 40 x 40 ft. / 12 x 12 m
Surface: concrete
Runway edge lights: PERI
HELIPORT HAS PERIMETER & FLOOD LGTS.
Operational restrictions: 50 FT X 50 FT CONC PARKING PAD LOCATED SE OF LNDG PAD.
Latitude: 41-52.485283N
Longitude: 087-40.403217W
Elevation: 593.0 ft.
Traffic pattern: leftleft

Heliport Ownership and Management from official FAA records

Ownership: Publicly-owned
Owner: COOK COUNTY
69 W. WASHINGTON ST 30TH FLR
CHICAGO, IL 60602
Phone 312-603-0300
Manager: RALPH TURNER/JOHN STROGER JR.
1901 W. HARRISON ST- ROOM 1120
CHICAGO, IL 60612
Phone 312-864-7784
HOSPITAL POLICE CHIEF.

Additional Remarks

FOR CD CTC CHICAGO APCH AT 847-289-0926.

Instrument Procedures

There are no published instrument procedures at IL75.

Some nearby airports with instrument procedures:

KMDW - Chicago Midway International Airport (6 nm SW)
KORD - Chicago O'Hare International Airport (12 nm NW)
KPWK - Chicago Executive Airport (18 nm NW)
KGYY - Gary/Chicago International Airport (19 nm SE)
KIGQ - Lansing Municipal Airport (21 nm S)
 
Loc | Ops | Rwys | IFR | FBO | Links
Com | Nav | Svcs | Stats | Notes
Area around IL75 (John H Stroger Hospital of Cook County Heliport)
 
Road maps at: MapQuest Bing Google
 
Aerial photo
No photo
 
Sectional chart

 
Airport distance calculator
Flying to John H Stroger Hospital of Cook County Heliport? Find the distance to fly.

From to IL75

Sunrise and sunset
Times for 05-Dec-2019
 Local
(UTC-6)
 Zulu
(UTC)
Morning civil twilight06:3312:33
Sunrise07:0413:04
Sunset16:1922:19
Evening civil twilight16:5022:50

Current date and time
Zulu (UTC)  05-Dec-2019 22:46:34
Local (UTC-6)  05-Dec-2019 16:46:34
 
METAR
KMDW 
6nm SW 
052153Z 19007KT 10SM FEW120 BKN180 BKN250 08/00 A2996 RMK AO2 SLP154 T00780000
KORD 
13nm NW 
052151Z 19006KT 10SM FEW130 SCT170 BKN250 07/00 A2994 RMK AO2 SLP146 T00670000
KPWK 
18nm NW 
052152Z 18010KT 10SM FEW120 07/M01 A2996 RMK AO2 SLP152 T00721011
KGYY 
19nm SE 
052145Z 18005KT 10SM BKN250 09/M03 A2998
TAF
KMDW 
6nm SW 
052051Z 0521/0624 19010KT P6SM SCT120 BKN200 FM052300 20009KT P6SM BKN100 FM060700 32012G17KT P6SM SCT015 OVC025 FM061300 35013G19KT P6SM SCT015 BKN025 FM061900 01010KT P6SM SCT025 SCT250
KORD 
13nm NW 
052051Z 0521/0624 19010KT P6SM SCT120 BKN200 FM052300 20009KT P6SM BKN100 FM060700 32012G17KT P6SM SCT015 OVC025 FM061300 35013G19KT P6SM SCT015 BKN025 FM061900 01010KT P6SM SCT025 SCT250
KGYY 
19nm SE 
052051Z 0521/0618 19008KT P6SM SCT120 BKN200 FM052300 20009KT P6SM BKN100 FM060800 32012G19KT P6SM SCT015 OVC025 FM061400 35014G22KT P6SM SCT015 BKN025
NOTAMs
Click for the latest NOTAMs
NOTAMs are issued by the DoD/FAA and will open in a separate window not controlled by AirNav.

 

 
 

Would you like to see your business listed on this page?

 If your business provides an interesting product or service to pilots, flight crews, aircraft, or users of the John H Stroger Hospital of Cook County Heliport, you should consider listing it here.  To start the listing process, click on the button below
 
Add a business
 

Other Pages about John H Stroger Hospital of Cook County Heliport

Update a link
 
Copyright © AirNav, LLC. All rights reserved. Privacy Policy  Contact